sensor_id;sensor_type;location;lat;lon;timestamp;P1;durP1;ratioP1;P2;durP2;ratioP2
21581;SDS011;10952;50.836;4.348;2022-09-17T00:00:46;8.90;;;1.73;;
21581;SDS011;10952;50.836;4.348;2022-09-17T00:03:14;7.30;;;1.60;;
21581;SDS011;10952;50.836;4.348;2022-09-17T00:05:47;10.47;;;1.70;;
21581;SDS011;10952;50.836;4.348;2022-09-17T00:08:14;12.80;;;1.70;;
21581;SDS011;10952;50.836;4.348;2022-09-17T00:10:43;8.77;;;1.97;;
21581;SDS011;10952;50.836;4.348;2022-09-17T00:15:43;8.77;;;1.73;;
21581;SDS011;10952;50.836;4.348;2022-09-17T00:18:10;9.53;;;1.87;;
21581;SDS011;10952;50.836;4.348;2022-09-17T00:20:39;8.53;;;1.60;;
21581;SDS011;10952;50.836;4.348;2022-09-17T00:23:08;12.37;;;1.90;;
21581;SDS011;10952;50.836;4.348;2022-09-17T00:25:41;9.63;;;1.90;;
21581;SDS011;10952;50.836;4.348;2022-09-17T00:28:09;8.97;;;1.73;;
21581;SDS011;10952;50.836;4.348;2022-09-17T00:30:40;3.33;;;0.90;;
21581;SDS011;10952;50.836;4.348;2022-09-17T00:33:07;12.13;;;1.33;;
21581;SDS011;10952;50.836;4.348;2022-09-17T00:35:36;5.70;;;1.30;;
21581;SDS011;10952;50.836;4.348;2022-09-17T00:38:02;7.67;;;1.30;;
21581;SDS011;10952;50.836;4.348;2022-09-17T00:40:31;6.20;;;1.30;;
21581;SDS011;10952;50.836;4.348;2022-09-17T00:43:03;11.40;;;1.80;;
21581;SDS011;10952;50.836;4.348;2022-09-17T00:45:35;8.10;;;1.20;;
21581;SDS011;10952;50.836;4.348;2022-09-17T00:48:02;6.93;;;1.70;;
21581;SDS011;10952;50.836;4.348;2022-09-17T00:53:04;3.53;;;1.30;;
21581;SDS011;10952;50.836;4.348;2022-09-17T00:55:47;6.10;;;1.43;;
21581;SDS011;10952;50.836;4.348;2022-09-17T00:58:20;13.33;;;2.40;;
21581;SDS011;10952;50.836;4.348;2022-09-17T01:00:48;8.47;;;1.53;;
21581;SDS011;10952;50.836;4.348;2022-09-17T01:03:16;6.53;;;1.40;;
21581;SDS011;10952;50.836;4.348;2022-09-17T01:13:57;11.53;;;1.93;;
21581;SDS011;10952;50.836;4.348;2022-09-17T01:19:39;12.80;;;1.73;;
21581;SDS011;10952;50.836;4.348;2022-09-17T01:25:20;7.70;;;1.87;;
21581;SDS011;10952;50.836;4.348;2022-09-17T01:28:13;6.83;;;1.60;;
21581;SDS011;10952;50.836;4.348;2022-09-17T01:39:06;7.77;;;1.20;;
21581;SDS011;10952;50.836;4.348;2022-09-17T01:41:39;9.07;;;1.67;;
21581;SDS011;10952;50.836;4.348;2022-09-17T01:44:22;11.97;;;1.90;;
21581;SDS011;10952;50.836;4.348;2022-09-17T01:47:14;13.07;;;1.53;;
21581;SDS011;10952;50.836;4.348;2022-09-17T01:49:49;12.77;;;1.77;;
21581;SDS011;10952;50.836;4.348;2022-09-17T01:52:20;6.70;;;1.63;;
21581;SDS011;10952;50.836;4.348;2022-09-17T01:54:49;11.20;;;1.83;;
21581;SDS011;10952;50.836;4.348;2022-09-17T02:00:19;11.37;;;1.97;;
21581;SDS011;10952;50.836;4.348;2022-09-17T02:10:48;10.97;;;1.83;;
21581;SDS011;10952;50.836;4.348;2022-09-17T02:13:27;13.43;;;1.63;;
21581;SDS011;10952;50.836;4.348;2022-09-17T02:16:01;7.97;;;1.33;;
21581;SDS011;10952;50.836;4.348;2022-09-17T02:18:36;10.10;;;1.63;;
21581;SDS011;10952;50.836;4.348;2022-09-17T02:26:34;8.40;;;2.37;;
21581;SDS011;10952;50.836;4.348;2022-09-17T02:29:08;10.73;;;2.20;;
21581;SDS011;10952;50.836;4.348;2022-09-17T02:31:40;13.50;;;2.13;;
21581;SDS011;10952;50.836;4.348;2022-09-17T02:34:06;9.87;;;1.77;;
21581;SDS011;10952;50.836;4.348;2022-09-17T02:36:32;7.17;;;1.63;;
21581;SDS011;10952;50.836;4.348;2022-09-17T02:38:59;11.60;;;2.27;;
21581;SDS011;10952;50.836;4.348;2022-09-17T02:44:23;10.67;;;2.03;;
21581;SDS011;10952;50.836;4.348;2022-09-17T02:52:54;12.07;;;1.80;;
21581;SDS011;10952;50.836;4.348;2022-09-17T02:55:33;7.17;;;1.53;;
21581;SDS011;10952;50.836;4.348;2022-09-17T03:00:51;11.83;;;1.87;;
21581;SDS011;10952;50.836;4.348;2022-09-17T03:06:00;8.27;;;1.30;;
21581;SDS011;10952;50.836;4.348;2022-09-17T03:08:28;8.10;;;1.70;;
21581;SDS011;10952;50.836;4.348;2022-09-17T03:11:00;11.60;;;2.10;;
21581;SDS011;10952;50.836;4.348;2022-09-17T03:13:26;9.73;;;1.77;;
21581;SDS011;10952;50.836;4.348;2022-09-17T03:15:52;12.63;;;1.83;;
21581;SDS011;10952;50.836;4.348;2022-09-17T03:18:17;7.80;;;1.77;;
21581;SDS011;10952;50.836;4.348;2022-09-17T03:20:45;10.63;;;2.03;;
21581;SDS011;10952;50.836;4.348;2022-09-17T03:23:13;10.07;;;1.67;;
21581;SDS011;10952;50.836;4.348;2022-09-17T03:25:39;13.20;;;2.10;;
21581;SDS011;10952;50.836;4.348;2022-09-17T03:28:05;10.20;;;2.13;;
21581;SDS011;10952;50.836;4.348;2022-09-17T03:30:31;13.40;;;1.97;;
21581;SDS011;10952;50.836;4.348;2022-09-17T03:32:57;10.23;;;1.83;;
21581;SDS011;10952;50.836;4.348;2022-09-17T03:35:23;11.60;;;2.07;;
21581;SDS011;10952;50.836;4.348;2022-09-17T03:37:49;10.33;;;1.87;;
21581;SDS011;10952;50.836;4.348;2022-09-17T03:40:17;11.07;;;1.83;;
21581;SDS011;10952;50.836;4.348;2022-09-17T03:42:43;15.07;;;2.30;;
21581;SDS011;10952;50.836;4.348;2022-09-17T03:45:09;7.30;;;2.30;;
21581;SDS011;10952;50.836;4.348;2022-09-17T03:47:35;10.67;;;1.97;;
21581;SDS011;10952;50.836;4.348;2022-09-17T03:50:02;10.43;;;1.83;;
21581;SDS011;10952;50.836;4.348;2022-09-17T03:52:28;11.30;;;2.10;;
21581;SDS011;10952;50.836;4.348;2022-09-17T03:54:54;9.33;;;1.80;;
21581;SDS011;10952;50.836;4.348;2022-09-17T03:57:20;11.47;;;1.73;;
21581;SDS011;10952;50.836;4.348;2022-09-17T03:59:47;10.53;;;2.00;;
21581;SDS011;10952;50.836;4.348;2022-09-17T04:02:13;15.73;;;2.80;;
21581;SDS011;10952;50.836;4.348;2022-09-17T04:04:39;10.70;;;2.20;;
21581;SDS011;10952;50.836;4.348;2022-09-17T04:07:04;10.33;;;2.27;;
21581;SDS011;10952;50.836;4.348;2022-09-17T04:09:30;14.53;;;3.13;;
21581;SDS011;10952;50.836;4.348;2022-09-17T04:11:57;15.30;;;2.43;;
21581;SDS011;10952;50.836;4.348;2022-09-17T04:14:24;14.07;;;2.50;;
21581;SDS011;10952;50.836;4.348;2022-09-17T04:16:53;11.37;;;2.20;;
21581;SDS011;10952;50.836;4.348;2022-09-17T04:19:19;10.60;;;2.07;;
21581;SDS011;10952;50.836;4.348;2022-09-17T04:21:45;10.03;;;1.87;;
21581;SDS011;10952;50.836;4.348;2022-09-17T04:24:10;17.77;;;2.33;;
21581;SDS011;10952;50.836;4.348;2022-09-17T04:26:37;12.90;;;2.63;;
21581;SDS011;10952;50.836;4.348;2022-09-17T04:29:03;14.23;;;2.53;;
21581;SDS011;10952;50.836;4.348;2022-09-17T04:31:28;10.60;;;1.97;;
21581;SDS011;10952;50.836;4.348;2022-09-17T04:33:54;13.80;;;2.17;;
21581;SDS011;10952;50.836;4.348;2022-09-17T04:36:22;18.87;;;2.30;;
21581;SDS011;10952;50.836;4.348;2022-09-17T04:38:49;12.07;;;2.50;;
21581;SDS011;10952;50.836;4.348;2022-09-17T04:41:15;13.07;;;2.03;;
21581;SDS011;10952;50.836;4.348;2022-09-17T04:43:42;10.07;;;2.70;;
21581;SDS011;10952;50.836;4.348;2022-09-17T04:46:09;9.53;;;1.93;;
21581;SDS011;10952;50.836;4.348;2022-09-17T04:48:34;11.87;;;2.00;;
21581;SDS011;10952;50.836;4.348;2022-09-17T04:51:00;11.93;;;2.00;;
21581;SDS011;10952;50.836;4.348;2022-09-17T04:53:27;16.43;;;2.83;;
21581;SDS011;10952;50.836;4.348;2022-09-17T04:55:53;15.43;;;2.67;;
21581;SDS011;10952;50.836;4.348;2022-09-17T04:58:20;12.07;;;1.83;;
21581;SDS011;10952;50.836;4.348;2022-09-17T05:00:46;13.67;;;2.10;;
21581;SDS011;10952;50.836;4.348;2022-09-17T05:03:12;13.53;;;2.33;;
21581;SDS011;10952;50.836;4.348;2022-09-17T05:05:38;11.17;;;2.60;;
21581;SDS011;10952;50.836;4.348;2022-09-17T05:08:04;13.90;;;2.27;;
21581;SDS011;10952;50.836;4.348;2022-09-17T05:10:30;15.03;;;2.40;;
21581;SDS011;10952;50.836;4.348;2022-09-17T05:12:59;15.30;;;2.00;;
21581;SDS011;10952;50.836;4.348;2022-09-17T05:15:26;10.20;;;2.30;;
21581;SDS011;10952;50.836;4.348;2022-09-17T05:17:52;11.80;;;2.40;;
21581;SDS011;10952;50.836;4.348;2022-09-17T05:20:18;11.13;;;2.27;;
21581;SDS011;10952;50.836;4.348;2022-09-17T05:22:46;10.57;;;2.40;;
21581;SDS011;10952;50.836;4.348;2022-09-17T05:25:15;11.33;;;2.03;;
21581;SDS011;10952;50.836;4.348;2022-09-17T05:27:43;12.70;;;3.00;;
21581;SDS011;10952;50.836;4.348;2022-09-17T05:30:10;11.90;;;2.23;;
21581;SDS011;10952;50.836;4.348;2022-09-17T05:32:37;17.43;;;2.53;;
21581;SDS011;10952;50.836;4.348;2022-09-17T05:35:06;16.10;;;2.17;;
21581;SDS011;10952;50.836;4.348;2022-09-17T05:37:33;10.67;;;2.40;;
21581;SDS011;10952;50.836;4.348;2022-09-17T05:40:00;14.30;;;2.50;;
21581;SDS011;10952;50.836;4.348;2022-09-17T05:42:27;11.07;;;2.03;;
21581;SDS011;10952;50.836;4.348;2022-09-17T05:44:54;11.27;;;1.60;;
21581;SDS011;10952;50.836;4.348;2022-09-17T05:47:20;10.47;;;2.40;;
21581;SDS011;10952;50.836;4.348;2022-09-17T05:49:45;14.87;;;2.83;;
21581;SDS011;10952;50.836;4.348;2022-09-17T05:52:13;13.13;;;2.40;;
21581;SDS011;10952;50.836;4.348;2022-09-17T05:54:43;11.27;;;2.40;;
21581;SDS011;10952;50.836;4.348;2022-09-17T05:57:08;14.57;;;2.33;;
21581;SDS011;10952;50.836;4.348;2022-09-17T05:59:37;9.87;;;2.13;;
21581;SDS011;10952;50.836;4.348;2022-09-17T06:02:06;17.20;;;2.40;;
21581;SDS011;10952;50.836;4.348;2022-09-17T06:04:35;8.97;;;2.20;;
21581;SDS011;10952;50.836;4.348;2022-09-17T06:07:04;12.93;;;2.30;;
21581;SDS011;10952;50.836;4.348;2022-09-17T06:09:39;11.03;;;1.90;;
21581;SDS011;10952;50.836;4.348;2022-09-17T06:12:05;14.53;;;2.33;;
21581;SDS011;10952;50.836;4.348;2022-09-17T06:14:34;13.47;;;2.10;;
21581;SDS011;10952;50.836;4.348;2022-09-17T06:17:00;7.70;;;2.03;;
21581;SDS011;10952;50.836;4.348;2022-09-17T06:22:00;17.80;;;2.43;;
21581;SDS011;10952;50.836;4.348;2022-09-17T06:24:28;12.73;;;2.40;;
21581;SDS011;10952;50.836;4.348;2022-09-17T06:26:53;14.30;;;1.60;;
21581;SDS011;10952;50.836;4.348;2022-09-17T06:29:19;9.40;;;2.23;;
21581;SDS011;10952;50.836;4.348;2022-09-17T06:31:46;7.90;;;1.97;;
21581;SDS011;10952;50.836;4.348;2022-09-17T06:34:13;8.60;;;1.80;;
21581;SDS011;10952;50.836;4.348;2022-09-17T06:36:40;9.53;;;2.20;;
21581;SDS011;10952;50.836;4.348;2022-09-17T06:39:07;16.63;;;1.90;;
21581;SDS011;10952;50.836;4.348;2022-09-17T06:41:33;16.50;;;2.43;;
21581;SDS011;10952;50.836;4.348;2022-09-17T06:44:01;9.97;;;1.93;;
21581;SDS011;10952;50.836;4.348;2022-09-17T06:46:28;14.47;;;1.93;;
21581;SDS011;10952;50.836;4.348;2022-09-17T06:48:56;7.13;;;1.50;;
21581;SDS011;10952;50.836;4.348;2022-09-17T06:51:21;11.43;;;1.97;;
21581;SDS011;10952;50.836;4.348;2022-09-17T06:53:48;7.60;;;1.77;;
21581;SDS011;10952;50.836;4.348;2022-09-17T06:56:15;10.93;;;1.97;;
21581;SDS011;10952;50.836;4.348;2022-09-17T06:58:42;14.60;;;2.37;;
21581;SDS011;10952;50.836;4.348;2022-09-17T07:01:09;10.83;;;2.17;;
21581;SDS011;10952;50.836;4.348;2022-09-17T07:03:36;10.43;;;2.13;;
21581;SDS011;10952;50.836;4.348;2022-09-17T07:06:02;11.37;;;2.20;;
21581;SDS011;10952;50.836;4.348;2022-09-17T07:08:31;12.97;;;1.93;;
21581;SDS011;10952;50.836;4.348;2022-09-17T07:10:58;9.13;;;1.77;;
21581;SDS011;10952;50.836;4.348;2022-09-17T07:13:24;15.13;;;2.17;;
21581;SDS011;10952;50.836;4.348;2022-09-17T07:15:54;11.80;;;1.90;;
21581;SDS011;10952;50.836;4.348;2022-09-17T07:18:22;9.80;;;1.50;;
21581;SDS011;10952;50.836;4.348;2022-09-17T07:20:59;15.00;;;2.07;;
21581;SDS011;10952;50.836;4.348;2022-09-17T07:23:29;15.00;;;2.57;;
21581;SDS011;10952;50.836;4.348;2022-09-17T07:26:00;12.70;;;2.73;;
21581;SDS011;10952;50.836;4.348;2022-09-17T07:28:31;12.03;;;2.17;;
21581;SDS011;10952;50.836;4.348;2022-09-17T07:30:57;12.40;;;3.63;;
21581;SDS011;10952;50.836;4.348;2022-09-17T07:33:26;14.23;;;2.30;;
21581;SDS011;10952;50.836;4.348;2022-09-17T07:35:56;15.33;;;2.40;;
21581;SDS011;10952;50.836;4.348;2022-09-17T07:38:24;12.57;;;2.87;;
21581;SDS011;10952;50.836;4.348;2022-09-17T07:40:58;9.03;;;2.20;;
21581;SDS011;10952;50.836;4.348;2022-09-17T07:43:26;14.73;;;2.33;;
21581;SDS011;10952;50.836;4.348;2022-09-17T07:45:53;12.37;;;1.93;;
21581;SDS011;10952;50.836;4.348;2022-09-17T07:48:21;12.00;;;1.87;;
21581;SDS011;10952;50.836;4.348;2022-09-17T07:50:46;11.27;;;1.90;;
21581;SDS011;10952;50.836;4.348;2022-09-17T07:53:13;12.13;;;2.30;;
21581;SDS011;10952;50.836;4.348;2022-09-17T07:55:41;7.83;;;2.00;;
21581;SDS011;10952;50.836;4.348;2022-09-17T07:58:08;10.20;;;2.03;;
21581;SDS011;10952;50.836;4.348;2022-09-17T08:00:33;9.70;;;2.10;;
21581;SDS011;10952;50.836;4.348;2022-09-17T08:03:00;11.27;;;3.07;;
21581;SDS011;10952;50.836;4.348;2022-09-17T08:05:26;15.93;;;2.30;;
21581;SDS011;10952;50.836;4.348;2022-09-17T08:07:52;11.47;;;2.03;;
21581;SDS011;10952;50.836;4.348;2022-09-17T08:10:21;10.57;;;2.03;;
21581;SDS011;10952;50.836;4.348;2022-09-17T08:12:48;12.83;;;2.13;;
21581;SDS011;10952;50.836;4.348;2022-09-17T08:15:15;9.10;;;2.00;;
21581;SDS011;10952;50.836;4.348;2022-09-17T08:17:44;10.73;;;1.80;;
21581;SDS011;10952;50.836;4.348;2022-09-17T08:20:11;7.60;;;1.80;;
21581;SDS011;10952;50.836;4.348;2022-09-17T08:22:37;7.10;;;1.80;;
21581;SDS011;10952;50.836;4.348;2022-09-17T08:25:03;12.87;;;2.20;;
21581;SDS011;10952;50.836;4.348;2022-09-17T08:27:30;12.97;;;2.97;;
21581;SDS011;10952;50.836;4.348;2022-09-17T08:29:56;10.63;;;2.07;;
21581;SDS011;10952;50.836;4.348;2022-09-17T08:32:23;11.03;;;1.67;;
21581;SDS011;10952;50.836;4.348;2022-09-17T08:34:50;15.20;;;2.30;;
21581;SDS011;10952;50.836;4.348;2022-09-17T08:37:18;9.37;;;1.70;;
21581;SDS011;10952;50.836;4.348;2022-09-17T08:39:45;10.33;;;2.20;;
21581;SDS011;10952;50.836;4.348;2022-09-17T08:42:16;10.27;;;1.57;;
21581;SDS011;10952;50.836;4.348;2022-09-17T08:44:52;6.23;;;1.63;;
21581;SDS011;10952;50.836;4.348;2022-09-17T08:50:29;5.73;;;1.23;;
21581;SDS011;10952;50.836;4.348;2022-09-17T08:55:39;10.80;;;1.80;;
21581;SDS011;10952;50.836;4.348;2022-09-17T08:58:22;13.67;;;1.87;;
21581;SDS011;10952;50.836;4.348;2022-09-17T09:06:08;6.87;;;1.53;;
21581;SDS011;10952;50.836;4.348;2022-09-17T09:08:48;6.97;;;1.40;;
21581;SDS011;10952;50.836;4.348;2022-09-17T09:11:22;6.00;;;1.70;;
21581;SDS011;10952;50.836;4.348;2022-09-17T09:16:45;5.53;;;1.40;;
21581;SDS011;10952;50.836;4.348;2022-09-17T09:22:05;9.93;;;1.67;;
21581;SDS011;10952;50.836;4.348;2022-09-17T09:25:13;5.37;;;1.40;;
21581;SDS011;10952;50.836;4.348;2022-09-17T09:30:15;12.80;;;2.03;;
21581;SDS011;10952;50.836;4.348;2022-09-17T09:35:26;10.70;;;1.70;;
21581;SDS011;10952;50.836;4.348;2022-09-17T09:46:15;6.70;;;1.37;;
21581;SDS011;10952;50.836;4.348;2022-09-17T09:52:00;5.40;;;1.03;;
21581;SDS011;10952;50.836;4.348;2022-09-17T10:00:26;8.27;;;1.30;;
21581;SDS011;10952;50.836;4.348;2022-09-17T10:05:50;6.67;;;1.70;;
21581;SDS011;10952;50.836;4.348;2022-09-17T10:08:25;6.93;;;1.40;;
21581;SDS011;10952;50.836;4.348;2022-09-17T10:10:52;3.83;;;1.40;;
21581;SDS011;10952;50.836;4.348;2022-09-17T10:13:22;9.17;;;1.47;;
21581;SDS011;10952;50.836;4.348;2022-09-17T10:15:49;5.63;;;1.50;;
21581;SDS011;10952;50.836;4.348;2022-09-17T10:18:22;6.53;;;1.23;;
21581;SDS011;10952;50.836;4.348;2022-09-17T10:20:51;1.93;;;1.20;;
21581;SDS011;10952;50.836;4.348;2022-09-17T10:23:19;3.57;;;1.17;;
21581;SDS011;10952;50.836;4.348;2022-09-17T10:25:47;6.90;;;1.60;;
21581;SDS011;10952;50.836;4.348;2022-09-17T10:31:00;5.00;;;1.13;;
21581;SDS011;10952;50.836;4.348;2022-09-17T10:33:39;4.77;;;1.00;;
21581;SDS011;10952;50.836;4.348;2022-09-17T10:36:35;6.23;;;1.53;;
21581;SDS011;10952;50.836;4.348;2022-09-17T10:41:53;5.03;;;1.20;;
21581;SDS011;10952;50.836;4.348;2022-09-17T10:44:21;4.53;;;1.10;;
21581;SDS011;10952;50.836;4.348;2022-09-17T10:46:49;2.23;;;0.70;;
21581;SDS011;10952;50.836;4.348;2022-09-17T10:49:59;4.57;;;1.57;;
21581;SDS011;10952;50.836;4.348;2022-09-17T10:52:10;2.90;;;1.00;;
21581;SDS011;10952;50.836;4.348;2022-09-17T10:57:27;9.70;;;1.23;;
21581;SDS011;10952;50.836;4.348;2022-09-17T11:00:10;7.50;;;1.57;;
21581;SDS011;10952;50.836;4.348;2022-09-17T11:08:48;3.23;;;1.30;;
21581;SDS011;10952;50.836;4.348;2022-09-17T11:11:31;10.47;;;1.70;;
21581;SDS011;10952;50.836;4.348;2022-09-17T11:22:47;6.73;;;1.30;;
21581;SDS011;10952;50.836;4.348;2022-09-17T11:34:36;6.90;;;1.50;;
21581;SDS011;10952;50.836;4.348;2022-09-17T11:39:56;7.37;;;1.60;;
21581;SDS011;10952;50.836;4.348;2022-09-17T11:42:36;6.83;;;1.50;;
21581;SDS011;10952;50.836;4.348;2022-09-17T11:47:48;5.83;;;1.70;;
21581;SDS011;10952;50.836;4.348;2022-09-17T11:50:24;6.63;;;1.40;;
21581;SDS011;10952;50.836;4.348;2022-09-17T11:58:54;12.60;;;2.80;;
21581;SDS011;10952;50.836;4.348;2022-09-17T12:01:48;6.47;;;1.40;;
21581;SDS011;10952;50.836;4.348;2022-09-17T12:04:36;5.27;;;1.90;;
21581;SDS011;10952;50.836;4.348;2022-09-17T12:07:35;9.97;;;1.70;;
21581;SDS011;10952;50.836;4.348;2022-09-17T12:13:05;6.67;;;1.80;;
21581;SDS011;10952;50.836;4.348;2022-09-17T12:15:50;7.83;;;1.40;;
21581;SDS011;10952;50.836;4.348;2022-09-17T12:21:19;12.53;;;1.93;;
21581;SDS011;10952;50.836;4.348;2022-09-17T12:23:56;11.40;;;2.30;;
21581;SDS011;10952;50.836;4.348;2022-09-17T12:43:53;13.80;;;2.07;;
21581;SDS011;10952;50.836;4.348;2022-09-17T12:57:46;12.63;;;2.37;;
21581;SDS011;10952;50.836;4.348;2022-09-17T13:00:23;8.73;;;1.90;;
21581;SDS011;10952;50.836;4.348;2022-09-17T13:03:03;16.07;;;2.00;;
21581;SDS011;10952;50.836;4.348;2022-09-17T13:05:43;11.27;;;1.83;;
21581;SDS011;10952;50.836;4.348;2022-09-17T13:08:23;12.67;;;2.60;;
21581;SDS011;10952;50.836;4.348;2022-09-17T13:14:00;6.80;;;1.80;;
21581;SDS011;10952;50.836;4.348;2022-09-17T13:22:15;14.13;;;2.37;;
21581;SDS011;10952;50.836;4.348;2022-09-17T13:24:43;10.07;;;2.40;;
21581;SDS011;10952;50.836;4.348;2022-09-17T13:27:18;11.80;;;2.77;;
21581;SDS011;10952;50.836;4.348;2022-09-17T13:37:35;11.27;;;2.07;;
21581;SDS011;10952;50.836;4.348;2022-09-17T13:40:01;11.43;;;2.30;;
21581;SDS011;10952;50.836;4.348;2022-09-17T13:42:30;10.73;;;1.77;;
21581;SDS011;10952;50.836;4.348;2022-09-17T13:45:15;12.00;;;2.17;;
21581;SDS011;10952;50.836;4.348;2022-09-17T13:47:49;9.80;;;1.83;;
21581;SDS011;10952;50.836;4.348;2022-09-17T13:52:59;6.37;;;1.27;;
21581;SDS011;10952;50.836;4.348;2022-09-17T13:58:40;7.23;;;2.10;;
21581;SDS011;10952;50.836;4.348;2022-09-17T14:05:55;8.20;;;2.03;;
21581;SDS011;10952;50.836;4.348;2022-09-17T14:14:49;8.83;;;2.90;;
21581;SDS011;10952;50.836;4.348;2022-09-17T14:16:52;11.33;;;1.90;;
21581;SDS011;10952;50.836;4.348;2022-09-17T14:19:19;11.03;;;1.83;;
21581;SDS011;10952;50.836;4.348;2022-09-17T14:21:57;4.93;;;1.53;;
21581;SDS011;10952;50.836;4.348;2022-09-17T14:24:28;9.43;;;1.90;;
21581;SDS011;10952;50.836;4.348;2022-09-17T14:32:14;9.90;;;2.20;;
21581;SDS011;10952;50.836;4.348;2022-09-17T14:34:44;6.47;;;1.77;;
21581;SDS011;10952;50.836;4.348;2022-09-17T14:39:45;9.23;;;1.90;;
21581;SDS011;10952;50.836;4.348;2022-09-17T14:42:16;6.70;;;1.57;;
21581;SDS011;10952;50.836;4.348;2022-09-17T14:44:53;4.70;;;1.10;;
21581;SDS011;10952;50.836;4.348;2022-09-17T14:47:27;4.53;;;1.20;;
21581;SDS011;10952;50.836;4.348;2022-09-17T14:49:53;5.33;;;1.40;;
21581;SDS011;10952;50.836;4.348;2022-09-17T14:55:14;6.10;;;1.40;;
21581;SDS011;10952;50.836;4.348;2022-09-17T14:57:44;6.03;;;1.10;;
21581;SDS011;10952;50.836;4.348;2022-09-17T15:00:19;8.77;;;1.77;;
21581;SDS011;10952;50.836;4.348;2022-09-17T15:02:54;9.67;;;1.10;;
21581;SDS011;10952;50.836;4.348;2022-09-17T15:07:51;7.17;;;1.83;;
21581;SDS011;10952;50.836;4.348;2022-09-17T15:12:59;9.17;;;2.13;;
21581;SDS011;10952;50.836;4.348;2022-09-17T15:15:27;4.03;;;1.40;;
21581;SDS011;10952;50.836;4.348;2022-09-17T15:17:52;3.67;;;1.00;;
21581;SDS011;10952;50.836;4.348;2022-09-17T15:20:20;3.47;;;1.00;;
21581;SDS011;10952;50.836;4.348;2022-09-17T15:23:08;7.27;;;1.30;;
21581;SDS011;10952;50.836;4.348;2022-09-17T15:26:03;7.70;;;1.00;;
21581;SDS011;10952;50.836;4.348;2022-09-17T15:31:04;4.60;;;1.77;;
21581;SDS011;10952;50.836;4.348;2022-09-17T15:33:35;6.87;;;1.60;;
21581;SDS011;10952;50.836;4.348;2022-09-17T15:36:17;8.90;;;1.57;;
21581;SDS011;10952;50.836;4.348;2022-09-17T15:38:47;7.00;;;1.40;;
21581;SDS011;10952;50.836;4.348;2022-09-17T15:41:24;5.57;;;1.40;;
21581;SDS011;10952;50.836;4.348;2022-09-17T15:44:11;4.23;;;1.67;;
21581;SDS011;10952;50.836;4.348;2022-09-17T15:46:43;4.43;;;1.40;;
21581;SDS011;10952;50.836;4.348;2022-09-17T15:49:28;7.67;;;1.53;;
21581;SDS011;10952;50.836;4.348;2022-09-17T15:55:02;7.63;;;1.00;;
21581;SDS011;10952;50.836;4.348;2022-09-17T15:57:28;7.60;;;1.30;;
21581;SDS011;10952;50.836;4.348;2022-09-17T16:00:19;4.30;;;1.30;;
21581;SDS011;10952;50.836;4.348;2022-09-17T16:02:44;4.60;;;1.20;;
21581;SDS011;10952;50.836;4.348;2022-09-17T16:07:41;5.47;;;1.50;;
21581;SDS011;10952;50.836;4.348;2022-09-17T16:10:10;5.63;;;1.60;;
21581;SDS011;10952;50.836;4.348;2022-09-17T16:12:37;4.93;;;1.63;;
21581;SDS011;10952;50.836;4.348;2022-09-17T16:15:04;6.03;;;1.60;;
21581;SDS011;10952;50.836;4.348;2022-09-17T16:20:07;7.67;;;2.20;;
21581;SDS011;10952;50.836;4.348;2022-09-17T16:22:42;8.67;;;2.27;;
21581;SDS011;10952;50.836;4.348;2022-09-17T16:25:11;3.57;;;1.60;;
21581;SDS011;10952;50.836;4.348;2022-09-17T16:28:10;10.17;;;2.17;;
21581;SDS011;10952;50.836;4.348;2022-09-17T16:30:30;7.63;;;1.60;;
21581;SDS011;10952;50.836;4.348;2022-09-17T16:32:57;8.57;;;1.60;;
21581;SDS011;10952;50.836;4.348;2022-09-17T16:35:24;6.37;;;2.07;;
21581;SDS011;10952;50.836;4.348;2022-09-17T16:37:51;4.00;;;2.03;;
21581;SDS011;10952;50.836;4.348;2022-09-17T16:40:19;8.97;;;2.20;;
21581;SDS011;10952;50.836;4.348;2022-09-17T16:42:47;5.83;;;1.90;;
21581;SDS011;10952;50.836;4.348;2022-09-17T16:45:13;9.97;;;2.70;;
21581;SDS011;10952;50.836;4.348;2022-09-17T16:47:40;5.80;;;1.87;;
21581;SDS011;10952;50.836;4.348;2022-09-17T16:50:07;8.73;;;2.20;;
21581;SDS011;10952;50.836;4.348;2022-09-17T16:52:35;7.67;;;2.40;;
21581;SDS011;10952;50.836;4.348;2022-09-17T16:55:01;15.50;;;5.27;;
21581;SDS011;10952;50.836;4.348;2022-09-17T16:57:29;9.60;;;4.00;;
21581;SDS011;10952;50.836;4.348;2022-09-17T16:59:56;13.63;;;5.10;;
21581;SDS011;10952;50.836;4.348;2022-09-17T17:02:22;12.10;;;3.23;;
21581;SDS011;10952;50.836;4.348;2022-09-17T17:04:48;8.03;;;2.73;;
21581;SDS011;10952;50.836;4.348;2022-09-17T17:07:15;10.83;;;3.57;;
21581;SDS011;10952;50.836;4.348;2022-09-17T17:09:40;9.67;;;2.83;;
21581;SDS011;10952;50.836;4.348;2022-09-17T17:12:07;5.30;;;1.93;;
21581;SDS011;10952;50.836;4.348;2022-09-17T17:14:35;18.77;;;4.87;;
21581;SDS011;10952;50.836;4.348;2022-09-17T17:17:01;8.30;;;2.17;;
21581;SDS011;10952;50.836;4.348;2022-09-17T17:21:56;11.23;;;2.40;;
21581;SDS011;10952;50.836;4.348;2022-09-17T17:24:21;7.87;;;2.03;;
21581;SDS011;10952;50.836;4.348;2022-09-17T17:26:47;8.60;;;2.23;;
21581;SDS011;10952;50.836;4.348;2022-09-17T17:29:13;7.83;;;1.83;;
21581;SDS011;10952;50.836;4.348;2022-09-17T17:31:40;8.77;;;2.20;;
21581;SDS011;10952;50.836;4.348;2022-09-17T17:34:06;13.43;;;3.77;;
21581;SDS011;10952;50.836;4.348;2022-09-17T17:36:32;10.23;;;3.50;;
21581;SDS011;10952;50.836;4.348;2022-09-17T17:38:59;6.93;;;2.40;;
21581;SDS011;10952;50.836;4.348;2022-09-17T17:41:28;10.87;;;3.33;;
21581;SDS011;10952;50.836;4.348;2022-09-17T17:43:55;7.67;;;2.53;;
21581;SDS011;10952;50.836;4.348;2022-09-17T17:46:21;16.60;;;3.77;;
21581;SDS011;10952;50.836;4.348;2022-09-17T17:48:52;7.77;;;3.37;;
21581;SDS011;10952;50.836;4.348;2022-09-17T17:51:17;8.40;;;3.33;;
21581;SDS011;10952;50.836;4.348;2022-09-17T17:53:44;10.83;;;3.33;;
21581;SDS011;10952;50.836;4.348;2022-09-17T17:56:10;10.80;;;3.13;;
21581;SDS011;10952;50.836;4.348;2022-09-17T17:58:37;8.73;;;2.93;;
21581;SDS011;10952;50.836;4.348;2022-09-17T18:04:00;7.47;;;2.43;;
21581;SDS011;10952;50.836;4.348;2022-09-17T18:06:28;8.43;;;3.40;;
21581;SDS011;10952;50.836;4.348;2022-09-17T18:08:54;7.70;;;3.37;;
21581;SDS011;10952;50.836;4.348;2022-09-17T18:11:23;9.23;;;3.13;;
21581;SDS011;10952;50.836;4.348;2022-09-17T18:13:50;7.77;;;2.73;;
21581;SDS011;10952;50.836;4.348;2022-09-17T18:16:17;13.47;;;3.37;;
21581;SDS011;10952;50.836;4.348;2022-09-17T18:18:44;14.67;;;4.20;;
21581;SDS011;10952;50.836;4.348;2022-09-17T18:21:12;8.70;;;2.73;;
21581;SDS011;10952;50.836;4.348;2022-09-17T18:23:42;12.17;;;3.13;;
21581;SDS011;10952;50.836;4.348;2022-09-17T18:26:17;10.33;;;3.37;;
21581;SDS011;10952;50.836;4.348;2022-09-17T18:28:44;10.97;;;3.47;;
21581;SDS011;10952;50.836;4.348;2022-09-17T18:31:27;13.33;;;3.20;;
21581;SDS011;10952;50.836;4.348;2022-09-17T18:36:27;11.80;;;3.23;;
21581;SDS011;10952;50.836;4.348;2022-09-17T18:38:57;11.40;;;3.23;;
21581;SDS011;10952;50.836;4.348;2022-09-17T18:41:35;25.17;;;5.27;;
21581;SDS011;10952;50.836;4.348;2022-09-17T18:44:05;12.77;;;3.90;;
21581;SDS011;10952;50.836;4.348;2022-09-17T18:46:35;10.73;;;4.20;;
21581;SDS011;10952;50.836;4.348;2022-09-17T18:49:01;17.80;;;3.77;;
21581;SDS011;10952;50.836;4.348;2022-09-17T18:51:28;9.70;;;3.43;;
21581;SDS011;10952;50.836;4.348;2022-09-17T18:56:29;16.07;;;3.00;;
21581;SDS011;10952;50.836;4.348;2022-09-17T18:59:00;12.47;;;3.53;;
21581;SDS011;10952;50.836;4.348;2022-09-17T19:01:29;11.80;;;3.30;;
21581;SDS011;10952;50.836;4.348;2022-09-17T19:03:56;9.37;;;3.37;;
21581;SDS011;10952;50.836;4.348;2022-09-17T19:06:23;10.20;;;2.90;;
21581;SDS011;10952;50.836;4.348;2022-09-17T19:08:50;11.33;;;4.33;;